sensor_id;sensor_type;location;lat;lon;timestamp;P1;durP1;ratioP1;P2;durP2;ratioP2
23826;SDS011;12094;50.822;4.376;2022-10-16T00:01:41;2.90;;;1.25;;
23826;SDS011;12094;50.822;4.376;2022-10-16T00:04:09;3.80;;;1.00;;
23826;SDS011;12094;50.822;4.376;2022-10-16T00:06:36;3.80;;;0.95;;
23826;SDS011;12094;50.822;4.376;2022-10-16T00:09:05;6.88;;;1.08;;
23826;SDS011;12094;50.822;4.376;2022-10-16T00:11:36;1.33;;;0.90;;
23826;SDS011;12094;50.822;4.376;2022-10-16T00:14:10;2.17;;;0.95;;
23826;SDS011;12094;50.822;4.376;2022-10-16T00:16:42;4.00;;;1.50;;
23826;SDS011;12094;50.822;4.376;2022-10-16T00:19:10;3.15;;;1.20;;
23826;SDS011;12094;50.822;4.376;2022-10-16T00:21:40;5.45;;;1.58;;
23826;SDS011;12094;50.822;4.376;2022-10-16T00:26:40;3.08;;;1.48;;
23826;SDS011;12094;50.822;4.376;2022-10-16T00:29:08;5.38;;;1.20;;
23826;SDS011;12094;50.822;4.376;2022-10-16T00:31:37;4.95;;;1.05;;
23826;SDS011;12094;50.822;4.376;2022-10-16T00:34:06;3.15;;;1.40;;
23826;SDS011;12094;50.822;4.376;2022-10-16T00:36:34;1.85;;;1.00;;
23826;SDS011;12094;50.822;4.376;2022-10-16T00:39:02;2.13;;;1.00;;
23826;SDS011;12094;50.822;4.376;2022-10-16T00:41:33;2.17;;;1.10;;
23826;SDS011;12094;50.822;4.376;2022-10-16T00:44:02;3.03;;;1.00;;
23826;SDS011;12094;50.822;4.376;2022-10-16T00:46:51;4.22;;;1.15;;
23826;SDS011;12094;50.822;4.376;2022-10-16T00:49:35;1.75;;;1.05;;
23826;SDS011;12094;50.822;4.376;2022-10-16T00:52:05;1.58;;;1.08;;
23826;SDS011;12094;50.822;4.376;2022-10-16T00:54:32;3.17;;;1.08;;
23826;SDS011;12094;50.822;4.376;2022-10-16T00:57:03;5.20;;;1.23;;
23826;SDS011;12094;50.822;4.376;2022-10-16T00:59:39;4.78;;;1.30;;
23826;SDS011;12094;50.822;4.376;2022-10-16T01:02:08;2.30;;;1.00;;
23826;SDS011;12094;50.822;4.376;2022-10-16T01:04:45;5.28;;;1.30;;
23826;SDS011;12094;50.822;4.376;2022-10-16T01:18:29;2.75;;;1.17;;
23826;SDS011;12094;50.822;4.376;2022-10-16T01:21:05;2.38;;;1.13;;
23826;SDS011;12094;50.822;4.376;2022-10-16T01:26:29;5.63;;;1.35;;
23826;SDS011;12094;50.822;4.376;2022-10-16T01:29:25;4.15;;;1.42;;
23826;SDS011;12094;50.822;4.376;2022-10-16T01:35:11;4.50;;;1.73;;
23826;SDS011;12094;50.822;4.376;2022-10-16T01:37:47;3.55;;;1.42;;
23826;SDS011;12094;50.822;4.376;2022-10-16T01:40:17;2.80;;;1.65;;
23826;SDS011;12094;50.822;4.376;2022-10-16T01:42:48;1.67;;;1.03;;
23826;SDS011;12094;50.822;4.376;2022-10-16T01:45:20;3.55;;;1.13;;
23826;SDS011;12094;50.822;4.376;2022-10-16T01:47:51;5.53;;;1.65;;
23826;SDS011;12094;50.822;4.376;2022-10-16T01:50:19;3.40;;;1.40;;
23826;SDS011;12094;50.822;4.376;2022-10-16T01:52:50;3.97;;;1.38;;
23826;SDS011;12094;50.822;4.376;2022-10-16T01:55:25;5.15;;;1.40;;
23826;SDS011;12094;50.822;4.376;2022-10-16T01:58:01;4.18;;;1.50;;
23826;SDS011;12094;50.822;4.376;2022-10-16T02:00:31;3.03;;;1.30;;
23826;SDS011;12094;50.822;4.376;2022-10-16T02:03:00;2.30;;;1.17;;
23826;SDS011;12094;50.822;4.376;2022-10-16T02:05:46;3.58;;;1.60;;
23826;SDS011;12094;50.822;4.376;2022-10-16T02:08:20;3.92;;;1.60;;
23826;SDS011;12094;50.822;4.376;2022-10-16T02:10:49;3.88;;;1.45;;
23826;SDS011;12094;50.822;4.376;2022-10-16T02:13:19;9.55;;;1.40;;
23826;SDS011;12094;50.822;4.376;2022-10-16T02:15:53;3.53;;;1.60;;
23826;SDS011;12094;50.822;4.376;2022-10-16T02:20:59;5.63;;;1.70;;
23826;SDS011;12094;50.822;4.376;2022-10-16T02:23:48;2.60;;;1.63;;
23826;SDS011;12094;50.822;4.376;2022-10-16T02:26:20;3.00;;;1.35;;
23826;SDS011;12094;50.822;4.376;2022-10-16T02:29:12;3.42;;;1.77;;
23826;SDS011;12094;50.822;4.376;2022-10-16T02:31:43;4.65;;;1.55;;
23826;SDS011;12094;50.822;4.376;2022-10-16T02:34:15;7.88;;;1.50;;
23826;SDS011;12094;50.822;4.376;2022-10-16T02:36:44;3.80;;;1.48;;
23826;SDS011;12094;50.822;4.376;2022-10-16T02:39:14;6.43;;;1.80;;
23826;SDS011;12094;50.822;4.376;2022-10-16T02:44:44;8.48;;;1.80;;
23826;SDS011;12094;50.822;4.376;2022-10-16T02:47:11;3.58;;;1.60;;
23826;SDS011;12094;50.822;4.376;2022-10-16T02:49:39;3.53;;;2.30;;
23826;SDS011;12094;50.822;4.376;2022-10-16T02:52:12;3.97;;;1.50;;
23826;SDS011;12094;50.822;4.376;2022-10-16T02:54:40;5.88;;;1.58;;
23826;SDS011;12094;50.822;4.376;2022-10-16T02:57:07;6.22;;;2.15;;
23826;SDS011;12094;50.822;4.376;2022-10-16T02:59:35;3.85;;;1.50;;
23826;SDS011;12094;50.822;4.376;2022-10-16T03:02:02;6.95;;;1.73;;
23826;SDS011;12094;50.822;4.376;2022-10-16T03:04:29;4.63;;;1.90;;
23826;SDS011;12094;50.822;4.376;2022-10-16T03:06:59;5.18;;;1.90;;
23826;SDS011;12094;50.822;4.376;2022-10-16T03:09:26;4.18;;;1.90;;
23826;SDS011;12094;50.822;4.376;2022-10-16T03:11:55;3.97;;;1.60;;
23826;SDS011;12094;50.822;4.376;2022-10-16T03:16:55;4.03;;;1.83;;
23826;SDS011;12094;50.822;4.376;2022-10-16T03:19:23;2.55;;;1.67;;
23826;SDS011;12094;50.822;4.376;2022-10-16T03:21:53;5.93;;;1.75;;
23826;SDS011;12094;50.822;4.376;2022-10-16T03:24:20;2.42;;;1.75;;
23826;SDS011;12094;50.822;4.376;2022-10-16T03:26:47;4.75;;;1.80;;
23826;SDS011;12094;50.822;4.376;2022-10-16T03:29:15;3.20;;;1.83;;
23826;SDS011;12094;50.822;4.376;2022-10-16T03:31:44;5.03;;;1.95;;
23826;SDS011;12094;50.822;4.376;2022-10-16T03:34:11;5.63;;;1.80;;
23826;SDS011;12094;50.822;4.376;2022-10-16T03:36:37;4.28;;;1.65;;
23826;SDS011;12094;50.822;4.376;2022-10-16T03:39:04;5.00;;;1.77;;
23826;SDS011;12094;50.822;4.376;2022-10-16T03:41:33;3.78;;;1.70;;
23826;SDS011;12094;50.822;4.376;2022-10-16T03:44:04;4.80;;;1.90;;
23826;SDS011;12094;50.822;4.376;2022-10-16T03:46:33;4.88;;;1.60;;
23826;SDS011;12094;50.822;4.376;2022-10-16T03:49:03;5.03;;;1.80;;
23826;SDS011;12094;50.822;4.376;2022-10-16T03:51:37;2.88;;;1.80;;
23826;SDS011;12094;50.822;4.376;2022-10-16T03:54:03;3.22;;;1.80;;
23826;SDS011;12094;50.822;4.376;2022-10-16T03:56:30;2.22;;;1.50;;
23826;SDS011;12094;50.822;4.376;2022-10-16T03:58:57;4.75;;;1.90;;
23826;SDS011;12094;50.822;4.376;2022-10-16T04:01:25;3.08;;;1.95;;
23826;SDS011;12094;50.822;4.376;2022-10-16T04:06:25;6.75;;;1.80;;
23826;SDS011;12094;50.822;4.376;2022-10-16T04:08:53;4.03;;;1.83;;
23826;SDS011;12094;50.822;4.376;2022-10-16T04:11:24;6.63;;;1.92;;
23826;SDS011;12094;50.822;4.376;2022-10-16T04:13:55;5.05;;;1.88;;
23826;SDS011;12094;50.822;4.376;2022-10-16T04:16:25;5.15;;;2.08;;
23826;SDS011;12094;50.822;4.376;2022-10-16T04:18:55;6.45;;;2.05;;
23826;SDS011;12094;50.822;4.376;2022-10-16T04:23:54;3.17;;;1.65;;
23826;SDS011;12094;50.822;4.376;2022-10-16T04:26:23;5.45;;;2.00;;
23826;SDS011;12094;50.822;4.376;2022-10-16T04:31:22;3.60;;;1.80;;
23826;SDS011;12094;50.822;4.376;2022-10-16T04:33:51;4.65;;;1.70;;
23826;SDS011;12094;50.822;4.376;2022-10-16T04:36:20;9.35;;;1.60;;
23826;SDS011;12094;50.822;4.376;2022-10-16T04:38:55;3.80;;;1.88;;
23826;SDS011;12094;50.822;4.376;2022-10-16T04:43:53;8.63;;;1.85;;
23826;SDS011;12094;50.822;4.376;2022-10-16T04:46:22;3.15;;;1.55;;
23826;SDS011;12094;50.822;4.376;2022-10-16T04:48:50;3.78;;;2.00;;
23826;SDS011;12094;50.822;4.376;2022-10-16T04:51:18;5.25;;;2.10;;
23826;SDS011;12094;50.822;4.376;2022-10-16T04:53:48;4.38;;;1.77;;
23826;SDS011;12094;50.822;4.376;2022-10-16T04:56:15;6.38;;;1.58;;
23826;SDS011;12094;50.822;4.376;2022-10-16T04:58:43;9.25;;;2.00;;
23826;SDS011;12094;50.822;4.376;2022-10-16T05:01:11;5.47;;;1.90;;
23826;SDS011;12094;50.822;4.376;2022-10-16T05:03:41;6.85;;;2.20;;
23826;SDS011;12094;50.822;4.376;2022-10-16T05:06:09;7.28;;;1.83;;
23826;SDS011;12094;50.822;4.376;2022-10-16T05:08:39;5.13;;;1.88;;
23826;SDS011;12094;50.822;4.376;2022-10-16T05:13:37;6.45;;;2.22;;
23826;SDS011;12094;50.822;4.376;2022-10-16T05:16:05;3.42;;;2.20;;
23826;SDS011;12094;50.822;4.376;2022-10-16T05:18:37;9.32;;;2.20;;
23826;SDS011;12094;50.822;4.376;2022-10-16T05:21:07;3.30;;;2.20;;
23826;SDS011;12094;50.822;4.376;2022-10-16T05:23:40;6.43;;;2.33;;
23826;SDS011;12094;50.822;4.376;2022-10-16T05:26:07;7.20;;;2.22;;
23826;SDS011;12094;50.822;4.376;2022-10-16T05:28:36;5.28;;;2.40;;
23826;SDS011;12094;50.822;4.376;2022-10-16T05:31:08;7.18;;;2.33;;
23826;SDS011;12094;50.822;4.376;2022-10-16T05:33:35;4.63;;;2.00;;
23826;SDS011;12094;50.822;4.376;2022-10-16T05:36:03;6.95;;;2.13;;
23826;SDS011;12094;50.822;4.376;2022-10-16T05:38:32;6.65;;;2.35;;
23826;SDS011;12094;50.822;4.376;2022-10-16T05:41:00;4.47;;;2.05;;
23826;SDS011;12094;50.822;4.376;2022-10-16T05:43:28;4.05;;;2.38;;
23826;SDS011;12094;50.822;4.376;2022-10-16T05:45:59;4.40;;;2.17;;
23826;SDS011;12094;50.822;4.376;2022-10-16T05:48:28;3.30;;;2.10;;
23826;SDS011;12094;50.822;4.376;2022-10-16T05:50:57;8.82;;;3.03;;
23826;SDS011;12094;50.822;4.376;2022-10-16T05:56:00;6.82;;;2.30;;
23826;SDS011;12094;50.822;4.376;2022-10-16T05:58:29;6.07;;;2.20;;
23826;SDS011;12094;50.822;4.376;2022-10-16T06:01:03;7.18;;;2.05;;
23826;SDS011;12094;50.822;4.376;2022-10-16T06:03:36;4.15;;;2.25;;
23826;SDS011;12094;50.822;4.376;2022-10-16T06:06:11;6.53;;;2.50;;
23826;SDS011;12094;50.822;4.376;2022-10-16T06:08:46;6.38;;;2.00;;
23826;SDS011;12094;50.822;4.376;2022-10-16T06:11:17;7.00;;;2.75;;
23826;SDS011;12094;50.822;4.376;2022-10-16T06:13:52;5.33;;;2.40;;
23826;SDS011;12094;50.822;4.376;2022-10-16T06:16:27;4.85;;;1.80;;
23826;SDS011;12094;50.822;4.376;2022-10-16T06:18:58;7.10;;;2.20;;
23826;SDS011;12094;50.822;4.376;2022-10-16T06:21:26;10.95;;;2.88;;
23826;SDS011;12094;50.822;4.376;2022-10-16T06:26:26;4.28;;;2.13;;
23826;SDS011;12094;50.822;4.376;2022-10-16T06:28:57;5.07;;;1.90;;
23826;SDS011;12094;50.822;4.376;2022-10-16T06:31:27;5.88;;;2.47;;
23826;SDS011;12094;50.822;4.376;2022-10-16T06:33:57;9.75;;;2.17;;
23826;SDS011;12094;50.822;4.376;2022-10-16T06:36:25;5.45;;;2.03;;
23826;SDS011;12094;50.822;4.376;2022-10-16T06:38:52;4.50;;;2.00;;
23826;SDS011;12094;50.822;4.376;2022-10-16T06:41:22;3.83;;;2.05;;
23826;SDS011;12094;50.822;4.376;2022-10-16T06:43:49;5.55;;;1.95;;
23826;SDS011;12094;50.822;4.376;2022-10-16T06:46:17;7.10;;;1.90;;
23826;SDS011;12094;50.822;4.376;2022-10-16T06:48:46;6.72;;;2.00;;
23826;SDS011;12094;50.822;4.376;2022-10-16T06:51:15;5.78;;;2.13;;
23826;SDS011;12094;50.822;4.376;2022-10-16T06:53:49;4.28;;;1.80;;
23826;SDS011;12094;50.822;4.376;2022-10-16T06:59:05;5.47;;;2.03;;
23826;SDS011;12094;50.822;4.376;2022-10-16T07:01:32;6.68;;;2.40;;
23826;SDS011;12094;50.822;4.376;2022-10-16T07:04:01;10.27;;;2.08;;
23826;SDS011;12094;50.822;4.376;2022-10-16T07:06:30;7.53;;;2.10;;
23826;SDS011;12094;50.822;4.376;2022-10-16T07:11:32;5.22;;;1.80;;
23826;SDS011;12094;50.822;4.376;2022-10-16T07:13:59;5.63;;;2.00;;
23826;SDS011;12094;50.822;4.376;2022-10-16T07:16:28;4.88;;;2.08;;
23826;SDS011;12094;50.822;4.376;2022-10-16T07:21:32;4.85;;;2.25;;
23826;SDS011;12094;50.822;4.376;2022-10-16T07:24:06;5.38;;;2.20;;
23826;SDS011;12094;50.822;4.376;2022-10-16T07:26:40;3.80;;;1.92;;
23826;SDS011;12094;50.822;4.376;2022-10-16T07:29:16;6.70;;;2.20;;
23826;SDS011;12094;50.822;4.376;2022-10-16T07:31:48;8.20;;;2.20;;
23826;SDS011;12094;50.822;4.376;2022-10-16T07:34:18;4.00;;;2.08;;
23826;SDS011;12094;50.822;4.376;2022-10-16T07:36:50;4.22;;;2.17;;
23826;SDS011;12094;50.822;4.376;2022-10-16T07:39:18;9.23;;;2.60;;
23826;SDS011;12094;50.822;4.376;2022-10-16T07:41:46;6.18;;;1.83;;
23826;SDS011;12094;50.822;4.376;2022-10-16T07:44:15;6.63;;;2.17;;
23826;SDS011;12094;50.822;4.376;2022-10-16T07:46:42;3.90;;;2.20;;
23826;SDS011;12094;50.822;4.376;2022-10-16T07:49:10;7.78;;;2.20;;
23826;SDS011;12094;50.822;4.376;2022-10-16T07:51:37;6.40;;;2.42;;
23826;SDS011;12094;50.822;4.376;2022-10-16T07:54:08;8.27;;;2.03;;
23826;SDS011;12094;50.822;4.376;2022-10-16T07:56:38;5.45;;;2.25;;
23826;SDS011;12094;50.822;4.376;2022-10-16T07:59:09;6.05;;;2.45;;
23826;SDS011;12094;50.822;4.376;2022-10-16T08:01:37;7.63;;;2.40;;
23826;SDS011;12094;50.822;4.376;2022-10-16T08:04:06;4.93;;;2.30;;
23826;SDS011;12094;50.822;4.376;2022-10-16T08:06:35;3.78;;;2.00;;
23826;SDS011;12094;50.822;4.376;2022-10-16T08:09:04;4.82;;;2.28;;
23826;SDS011;12094;50.822;4.376;2022-10-16T08:11:32;7.53;;;2.10;;
23826;SDS011;12094;50.822;4.376;2022-10-16T08:14:01;8.65;;;2.63;;
23826;SDS011;12094;50.822;4.376;2022-10-16T08:16:28;6.63;;;2.65;;
23826;SDS011;12094;50.822;4.376;2022-10-16T08:18:56;6.28;;;2.40;;
23826;SDS011;12094;50.822;4.376;2022-10-16T08:21:23;7.93;;;2.45;;
23826;SDS011;12094;50.822;4.376;2022-10-16T08:23:53;5.65;;;1.95;;
23826;SDS011;12094;50.822;4.376;2022-10-16T08:28:56;5.10;;;1.75;;
23826;SDS011;12094;50.822;4.376;2022-10-16T08:31:26;9.77;;;2.30;;
23826;SDS011;12094;50.822;4.376;2022-10-16T08:33:53;8.85;;;2.10;;
23826;SDS011;12094;50.822;4.376;2022-10-16T08:36:20;4.85;;;2.30;;
23826;SDS011;12094;50.822;4.376;2022-10-16T08:38:49;7.15;;;2.17;;
23826;SDS011;12094;50.822;4.376;2022-10-16T08:41:28;3.53;;;1.80;;
23826;SDS011;12094;50.822;4.376;2022-10-16T08:44:31;9.82;;;2.08;;
23826;SDS011;12094;50.822;4.376;2022-10-16T08:47:21;5.65;;;2.03;;
23826;SDS011;12094;50.822;4.376;2022-10-16T08:52:24;5.75;;;1.75;;
23826;SDS011;12094;50.822;4.376;2022-10-16T08:54:56;7.40;;;1.87;;
23826;SDS011;12094;50.822;4.376;2022-10-16T08:57:24;12.80;;;2.17;;
23826;SDS011;12094;50.822;4.376;2022-10-16T08:59:54;8.30;;;1.48;;
23826;SDS011;12094;50.822;4.376;2022-10-16T09:02:35;12.75;;;2.33;;
23826;SDS011;12094;50.822;4.376;2022-10-16T09:10:46;4.30;;;1.67;;
23826;SDS011;12094;50.822;4.376;2022-10-16T09:13:26;6.07;;;1.48;;
23826;SDS011;12094;50.822;4.376;2022-10-16T09:19:09;6.47;;;1.38;;
23826;SDS011;12094;50.822;4.376;2022-10-16T09:21:47;10.93;;;1.75;;
23826;SDS011;12094;50.822;4.376;2022-10-16T09:24:16;10.45;;;1.73;;
23826;SDS011;12094;50.822;4.376;2022-10-16T09:26:45;7.60;;;1.77;;
23826;SDS011;12094;50.822;4.376;2022-10-16T09:29:15;5.75;;;1.55;;
23826;SDS011;12094;50.822;4.376;2022-10-16T09:31:44;5.30;;;1.58;;
23826;SDS011;12094;50.822;4.376;2022-10-16T09:34:24;7.15;;;1.30;;
23826;SDS011;12094;50.822;4.376;2022-10-16T09:37:01;10.10;;;1.83;;
23826;SDS011;12094;50.822;4.376;2022-10-16T09:39:48;10.30;;;1.75;;
23826;SDS011;12094;50.822;4.376;2022-10-16T09:42:17;10.15;;;1.80;;
23826;SDS011;12094;50.822;4.376;2022-10-16T09:44:48;8.20;;;1.65;;
23826;SDS011;12094;50.822;4.376;2022-10-16T09:47:18;6.07;;;1.67;;
23826;SDS011;12094;50.822;4.376;2022-10-16T09:52:26;11.55;;;1.60;;
23826;SDS011;12094;50.822;4.376;2022-10-16T09:55:00;5.45;;;1.92;;
23826;SDS011;12094;50.822;4.376;2022-10-16T10:00:31;7.45;;;1.35;;
23826;SDS011;12094;50.822;4.376;2022-10-16T10:03:09;7.95;;;1.70;;
23826;SDS011;12094;50.822;4.376;2022-10-16T10:05:37;5.80;;;2.03;;
23826;SDS011;12094;50.822;4.376;2022-10-16T10:08:12;6.88;;;1.73;;
23826;SDS011;12094;50.822;4.376;2022-10-16T10:10:47;7.10;;;1.52;;
23826;SDS011;12094;50.822;4.376;2022-10-16T10:15:47;8.43;;;1.30;;
23826;SDS011;12094;50.822;4.376;2022-10-16T10:18:16;6.93;;;1.40;;
23826;SDS011;12094;50.822;4.376;2022-10-16T10:20:56;6.38;;;1.20;;
23826;SDS011;12094;50.822;4.376;2022-10-16T10:23:25;6.70;;;1.40;;
23826;SDS011;12094;50.822;4.376;2022-10-16T10:37:26;5.55;;;1.35;;
23826;SDS011;12094;50.822;4.376;2022-10-16T10:40:17;4.18;;;0.90;;
23826;SDS011;12094;50.822;4.376;2022-10-16T10:45:55;9.45;;;1.83;;
23826;SDS011;12094;50.822;4.376;2022-10-16T10:54:32;4.65;;;1.40;;
23826;SDS011;12094;50.822;4.376;2022-10-16T10:57:30;3.95;;;1.20;;
23826;SDS011;12094;50.822;4.376;2022-10-16T11:00:20;3.97;;;1.30;;
23826;SDS011;12094;50.822;4.376;2022-10-16T11:08:42;4.53;;;1.08;;
23826;SDS011;12094;50.822;4.376;2022-10-16T11:11:24;5.68;;;1.02;;
23826;SDS011;12094;50.822;4.376;2022-10-16T11:14:05;9.55;;;1.10;;
23826;SDS011;12094;50.822;4.376;2022-10-16T11:21:58;6.20;;;1.30;;
23826;SDS011;12094;50.822;4.376;2022-10-16T11:27:41;3.15;;;1.02;;
23826;SDS011;12094;50.822;4.376;2022-10-16T11:30:29;7.28;;;1.40;;
23826;SDS011;12094;50.822;4.376;2022-10-16T11:40:56;2.92;;;1.08;;
23826;SDS011;12094;50.822;4.376;2022-10-16T11:43:35;4.43;;;1.20;;
23826;SDS011;12094;50.822;4.376;2022-10-16T11:46:13;5.30;;;1.23;;
23826;SDS011;12094;50.822;4.376;2022-10-16T11:48:48;4.82;;;1.52;;
23826;SDS011;12094;50.822;4.376;2022-10-16T11:51:40;6.18;;;1.17;;
23826;SDS011;12094;50.822;4.376;2022-10-16T11:54:40;5.57;;;1.45;;
23826;SDS011;12094;50.822;4.376;2022-10-16T11:57:19;5.85;;;1.23;;
23826;SDS011;12094;50.822;4.376;2022-10-16T11:59:55;5.78;;;1.17;;
23826;SDS011;12094;50.822;4.376;2022-10-16T12:03:22;5.50;;;1.17;;
23826;SDS011;12094;50.822;4.376;2022-10-16T12:08:20;4.63;;;1.27;;
23826;SDS011;12094;50.822;4.376;2022-10-16T12:10:48;5.57;;;1.30;;
23826;SDS011;12094;50.822;4.376;2022-10-16T12:18:42;2.65;;;1.05;;
23826;SDS011;12094;50.822;4.376;2022-10-16T12:21:15;5.13;;;1.90;;
23826;SDS011;12094;50.822;4.376;2022-10-16T12:23:50;4.57;;;1.30;;
23826;SDS011;12094;50.822;4.376;2022-10-16T12:26:27;4.70;;;1.17;;
23826;SDS011;12094;50.822;4.376;2022-10-16T12:29:09;5.38;;;1.38;;
23826;SDS011;12094;50.822;4.376;2022-10-16T12:31:58;4.78;;;1.40;;
23826;SDS011;12094;50.822;4.376;2022-10-16T12:34:32;4.47;;;1.15;;
23826;SDS011;12094;50.822;4.376;2022-10-16T12:37:21;4.22;;;1.73;;
23826;SDS011;12094;50.822;4.376;2022-10-16T12:39:54;4.85;;;1.20;;
23826;SDS011;12094;50.822;4.376;2022-10-16T12:42:31;2.80;;;0.80;;
23826;SDS011;12094;50.822;4.376;2022-10-16T12:45:00;3.25;;;1.15;;
23826;SDS011;12094;50.822;4.376;2022-10-16T12:49:58;6.57;;;1.00;;
23826;SDS011;12094;50.822;4.376;2022-10-16T12:52:35;2.58;;;1.02;;
23826;SDS011;12094;50.822;4.376;2022-10-16T12:55:12;7.10;;;1.20;;
23826;SDS011;12094;50.822;4.376;2022-10-16T13:18:02;7.00;;;1.30;;
23826;SDS011;12094;50.822;4.376;2022-10-16T13:23:15;4.60;;;0.90;;
23826;SDS011;12094;50.822;4.376;2022-10-16T13:26:19;4.72;;;1.42;;
23826;SDS011;12094;50.822;4.376;2022-10-16T13:28:49;8.98;;;1.42;;
23826;SDS011;12094;50.822;4.376;2022-10-16T13:33:55;5.30;;;1.20;;
23826;SDS011;12094;50.822;4.376;2022-10-16T13:36:27;5.53;;;1.20;;
23826;SDS011;12094;50.822;4.376;2022-10-16T13:39:06;5.32;;;1.08;;
23826;SDS011;12094;50.822;4.376;2022-10-16T13:41:42;4.25;;;1.05;;
23826;SDS011;12094;50.822;4.376;2022-10-16T13:44:14;8.23;;;1.38;;
23826;SDS011;12094;50.822;4.376;2022-10-16T13:46:46;4.70;;;1.17;;
23826;SDS011;12094;50.822;4.376;2022-10-16T13:49:24;3.10;;;1.20;;
23826;SDS011;12094;50.822;4.376;2022-10-16T13:51:58;5.43;;;1.35;;
23826;SDS011;12094;50.822;4.376;2022-10-16T13:54:27;4.57;;;1.10;;
23826;SDS011;12094;50.822;4.376;2022-10-16T13:57:06;5.88;;;1.10;;
23826;SDS011;12094;50.822;4.376;2022-10-16T13:59:52;5.10;;;1.02;;
23826;SDS011;12094;50.822;4.376;2022-10-16T14:02:34;7.40;;;1.60;;
23826;SDS011;12094;50.822;4.376;2022-10-16T14:05:04;7.68;;;1.23;;
23826;SDS011;12094;50.822;4.376;2022-10-16T14:07:37;4.55;;;0.88;;
23826;SDS011;12094;50.822;4.376;2022-10-16T14:10:07;4.80;;;1.00;;
23826;SDS011;12094;50.822;4.376;2022-10-16T14:17:58;5.05;;;0.90;;
23826;SDS011;12094;50.822;4.376;2022-10-16T14:20:28;4.63;;;1.00;;
23826;SDS011;12094;50.822;4.376;2022-10-16T14:23:20;8.50;;;1.40;;
23826;SDS011;12094;50.822;4.376;2022-10-16T14:26:05;3.72;;;1.17;;
23826;SDS011;12094;50.822;4.376;2022-10-16T14:28:36;4.38;;;1.08;;
23826;SDS011;12094;50.822;4.376;2022-10-16T14:31:19;5.68;;;1.40;;
23826;SDS011;12094;50.822;4.376;2022-10-16T14:33:51;8.00;;;1.52;;
23826;SDS011;12094;50.822;4.376;2022-10-16T14:36:17;6.82;;;1.30;;
23826;SDS011;12094;50.822;4.376;2022-10-16T14:39:06;4.57;;;1.15;;
23826;SDS011;12094;50.822;4.376;2022-10-16T14:41:47;5.07;;;1.10;;
23826;SDS011;12094;50.822;4.376;2022-10-16T14:44:17;5.63;;;1.20;;
23826;SDS011;12094;50.822;4.376;2022-10-16T14:46:45;6.97;;;1.65;;
23826;SDS011;12094;50.822;4.376;2022-10-16T14:51:46;6.63;;;1.40;;
23826;SDS011;12094;50.822;4.376;2022-10-16T14:54:14;6.70;;;1.40;;
23826;SDS011;12094;50.822;4.376;2022-10-16T14:56:57;5.18;;;1.67;;
23826;SDS011;12094;50.822;4.376;2022-10-16T15:05:02;5.97;;;1.67;;
23826;SDS011;12094;50.822;4.376;2022-10-16T15:07:40;7.25;;;1.90;;
23826;SDS011;12094;50.822;4.376;2022-10-16T15:10:10;7.10;;;1.63;;
23826;SDS011;12094;50.822;4.376;2022-10-16T15:12:38;3.83;;;1.30;;
23826;SDS011;12094;50.822;4.376;2022-10-16T15:15:15;6.45;;;1.55;;
23826;SDS011;12094;50.822;4.376;2022-10-16T15:17:43;4.10;;;1.30;;
23826;SDS011;12094;50.822;4.376;2022-10-16T15:20:11;6.40;;;1.50;;
23826;SDS011;12094;50.822;4.376;2022-10-16T15:22:38;6.93;;;1.63;;
23826;SDS011;12094;50.822;4.376;2022-10-16T15:26:07;5.80;;;1.65;;
23826;SDS011;12094;50.822;4.376;2022-10-16T15:28:09;5.88;;;2.13;;
23826;SDS011;12094;50.822;4.376;2022-10-16T15:30:37;7.03;;;2.03;;
23826;SDS011;12094;50.822;4.376;2022-10-16T15:33:05;4.68;;;2.25;;
23826;SDS011;12094;50.822;4.376;2022-10-16T15:35:37;9.23;;;2.22;;
23826;SDS011;12094;50.822;4.376;2022-10-16T15:38:04;8.05;;;2.25;;
23826;SDS011;12094;50.822;4.376;2022-10-16T15:40:32;6.45;;;2.08;;
23826;SDS011;12094;50.822;4.376;2022-10-16T15:42:59;8.18;;;2.47;;
23826;SDS011;12094;50.822;4.376;2022-10-16T15:45:26;7.20;;;2.00;;
23826;SDS011;12094;50.822;4.376;2022-10-16T15:47:54;6.75;;;1.98;;
23826;SDS011;12094;50.822;4.376;2022-10-16T15:50:22;5.28;;;1.52;;
23826;SDS011;12094;50.822;4.376;2022-10-16T15:52:50;5.80;;;1.50;;
23826;SDS011;12094;50.822;4.376;2022-10-16T15:55:19;4.85;;;1.38;;
23826;SDS011;12094;50.822;4.376;2022-10-16T15:57:47;6.55;;;1.63;;
23826;SDS011;12094;50.822;4.376;2022-10-16T16:00:15;7.25;;;1.77;;
23826;SDS011;12094;50.822;4.376;2022-10-16T16:02:48;5.88;;;1.77;;
23826;SDS011;12094;50.822;4.376;2022-10-16T16:05:17;7.75;;;2.10;;
23826;SDS011;12094;50.822;4.376;2022-10-16T16:07:44;8.25;;;2.28;;
23826;SDS011;12094;50.822;4.376;2022-10-16T16:10:12;5.22;;;1.65;;
23826;SDS011;12094;50.822;4.376;2022-10-16T16:12:39;7.45;;;2.20;;
23826;SDS011;12094;50.822;4.376;2022-10-16T16:15:07;5.85;;;2.03;;
23826;SDS011;12094;50.822;4.376;2022-10-16T16:17:35;7.75;;;2.10;;
23826;SDS011;12094;50.822;4.376;2022-10-16T16:20:03;7.22;;;3.35;;
23826;SDS011;12094;50.822;4.376;2022-10-16T16:22:31;4.72;;;2.42;;
23826;SDS011;12094;50.822;4.376;2022-10-16T16:25:00;7.45;;;2.38;;
23826;SDS011;12094;50.822;4.376;2022-10-16T16:27:30;4.88;;;2.00;;
23826;SDS011;12094;50.822;4.376;2022-10-16T16:32:36;9.90;;;2.38;;
23826;SDS011;12094;50.822;4.376;2022-10-16T16:35:03;6.88;;;2.33;;
23826;SDS011;12094;50.822;4.376;2022-10-16T16:37:31;15.00;;;3.00;;
23826;SDS011;12094;50.822;4.376;2022-10-16T16:39:58;12.98;;;3.80;;
23826;SDS011;12094;50.822;4.376;2022-10-16T16:42:26;31.35;;;13.10;;
23826;SDS011;12094;50.822;4.376;2022-10-16T16:44:54;14.15;;;8.07;;
23826;SDS011;12094;50.822;4.376;2022-10-16T16:47:21;15.95;;;9.95;;
23826;SDS011;12094;50.822;4.376;2022-10-16T16:49:48;26.92;;;12.13;;
23826;SDS011;12094;50.822;4.376;2022-10-16T16:52:15;17.23;;;8.90;;
23826;SDS011;12094;50.822;4.376;2022-10-16T16:54:43;17.75;;;9.30;;
23826;SDS011;12094;50.822;4.376;2022-10-16T16:57:11;16.10;;;8.02;;
23826;SDS011;12094;50.822;4.376;2022-10-16T16:59:38;10.40;;;5.70;;
23826;SDS011;12094;50.822;4.376;2022-10-16T17:02:05;5.90;;;3.70;;
23826;SDS011;12094;50.822;4.376;2022-10-16T17:04:32;14.57;;;4.45;;
23826;SDS011;12094;50.822;4.376;2022-10-16T17:07:01;51.17;;;23.02;;
23826;SDS011;12094;50.822;4.376;2022-10-16T17:09:31;10.30;;;4.47;;
23826;SDS011;12094;50.822;4.376;2022-10-16T17:12:00;13.63;;;3.70;;
23826;SDS011;12094;50.822;4.376;2022-10-16T17:14:28;12.55;;;4.22;;
23826;SDS011;12094;50.822;4.376;2022-10-16T17:16:55;16.45;;;4.68;;
23826;SDS011;12094;50.822;4.376;2022-10-16T17:19:23;10.50;;;4.00;;
23826;SDS011;12094;50.822;4.376;2022-10-16T17:21:51;14.10;;;4.95;;
23826;SDS011;12094;50.822;4.376;2022-10-16T17:26:51;9.80;;;4.78;;
23826;SDS011;12094;50.822;4.376;2022-10-16T17:29:18;14.23;;;4.97;;
23826;SDS011;12094;50.822;4.376;2022-10-16T17:31:47;13.77;;;4.95;;
23826;SDS011;12094;50.822;4.376;2022-10-16T17:34:18;10.13;;;4.90;;
23826;SDS011;12094;50.822;4.376;2022-10-16T17:36:46;14.95;;;5.65;;
23826;SDS011;12094;50.822;4.376;2022-10-16T17:39:14;10.38;;;5.88;;
23826;SDS011;12094;50.822;4.376;2022-10-16T17:41:49;12.23;;;5.32;;
23826;SDS011;12094;50.822;4.376;2022-10-16T17:44:19;13.18;;;6.32;;
23826;SDS011;12094;50.822;4.376;2022-10-16T17:46:50;13.65;;;6.80;;
23826;SDS011;12094;50.822;4.376;2022-10-16T17:49:20;11.07;;;6.65;;
23826;SDS011;12094;50.822;4.376;2022-10-16T17:51:51;15.38;;;8.00;;
23826;SDS011;12094;50.822;4.376;2022-10-16T17:54:20;20.08;;;8.27;;
23826;SDS011;12094;50.822;4.376;2022-10-16T17:56:47;17.27;;;9.82;;
23826;SDS011;12094;50.822;4.376;2022-10-16T17:59:14;17.48;;;10.40;;
23826;SDS011;12094;50.822;4.376;2022-10-16T18:01:43;26.40;;;15.27;;
23826;SDS011;12094;50.822;4.376;2022-10-16T18:04:15;19.63;;;12.90;;
23826;SDS011;12094;50.822;4.376;2022-10-16T18:06:44;41.40;;;24.90;;